Terminal Aerodrome Forecast
Issued by NWS Bismarck, ND

Home | Current Version | Previous Version | Text Only | Print | Product List | Glossary Off
Versions: 1 2 3 4 5 6 7 8 9 10 11 12 13 14 15 16 17 18 19 20 21 22 23 24 25 26 27 28

534
FTUS43 KBIS 210949 AAA
TAFBIS
TAF AMD
KBIS 210949Z 2110/2206 02005KT P6SM VCSH SCT060 BKN150
     FM211500 01006KT P6SM SKC=

USA.gov is the U.S. government's official web portal to all federal, state and local government web resources and services.